sensor_id;sensor_type;location;lat;lon;timestamp;P1;P2;P0
39955;PMS5003;25631;51.516;-0.470;2023-09-19T00:00:08;35;34;
39955;PMS5003;25631;51.516;-0.470;2023-09-19T00:02:45;38;37;
39955;PMS5003;25631;51.516;-0.470;2023-09-19T00:05:22;40;38;
39955;PMS5003;25631;51.516;-0.470;2023-09-19T00:07:58;37;35;
39955;PMS5003;25631;51.516;-0.470;2023-09-19T00:10:35;37;35;
39955;PMS5003;25631;51.516;-0.470;2023-09-19T00:13:12;40;40;
39955;PMS5003;25631;51.516;-0.470;2023-09-19T00:15:49;41;40;
39955;PMS5003;25631;51.516;-0.470;2023-09-19T00:18:25;49;49;
39955;PMS5003;25631;51.516;-0.470;2023-09-19T00:21:02;49;49;
39955;PMS5003;25631;51.516;-0.470;2023-09-19T00:23:38;48;47;
39955;PMS5003;25631;51.516;-0.470;2023-09-19T00:26:15;54;54;
39955;PMS5003;25631;51.516;-0.470;2023-09-19T00:28:52;58;56;
39955;PMS5003;25631;51.516;-0.470;2023-09-19T00:31:28;62;61;
39955;PMS5003;25631;51.516;-0.470;2023-09-19T00:34:04;67;66;
39955;PMS5003;25631;51.516;-0.470;2023-09-19T00:36:41;67;64;
39955;PMS5003;25631;51.516;-0.470;2023-09-19T00:39:17;61;60;
39955;PMS5003;25631;51.516;-0.470;2023-09-19T00:41:54;62;61;
39955;PMS5003;25631;51.516;-0.470;2023-09-19T00:44:30;61;60;
39955;PMS5003;25631;51.516;-0.470;2023-09-19T00:47:06;66;61;
39955;PMS5003;25631;51.516;-0.470;2023-09-19T00:49:43;60;59;
39955;PMS5003;25631;51.516;-0.470;2023-09-19T00:52:20;57;56;
39955;PMS5003;25631;51.516;-0.470;2023-09-19T00:54:56;65;64;
39955;PMS5003;25631;51.516;-0.470;2023-09-19T00:57:33;66;64;
39955;PMS5003;25631;51.516;-0.470;2023-09-19T01:00:10;62;62;
39955;PMS5003;25631;51.516;-0.470;2023-09-19T01:02:47;62;61;
39955;PMS5003;25631;51.516;-0.470;2023-09-19T01:05:24;62;59;
39955;PMS5003;25631;51.516;-0.470;2023-09-19T01:08:00;65;62;
39955;PMS5003;25631;51.516;-0.470;2023-09-19T01:10:37;67;66;
39955;PMS5003;25631;51.516;-0.470;2023-09-19T01:13:22;66;65;
39955;PMS5003;25631;51.516;-0.470;2023-09-19T01:16:07;65;65;
39955;PMS5003;25631;51.516;-0.470;2023-09-19T01:18:54;66;65;
39955;PMS5003;25631;51.516;-0.470;2023-09-19T01:21:39;67;65;
39955;PMS5003;25631;51.516;-0.470;2023-09-19T01:24:33;69;66;
39955;PMS5003;25631;51.516;-0.470;2023-09-19T01:27:33;67;64;
39955;PMS5003;25631;51.516;-0.470;2023-09-19T01:30:33;66;63;
39955;PMS5003;25631;51.516;-0.470;2023-09-19T01:33:15;61;60;
39955;PMS5003;25631;51.516;-0.470;2023-09-19T01:35:51;60;59;
39955;PMS5003;25631;51.516;-0.470;2023-09-19T01:38:28;61;59;
39955;PMS5003;25631;51.516;-0.470;2023-09-19T01:41:06;63;61;
39955;PMS5003;25631;51.516;-0.470;2023-09-19T01:43:47;70;68;
39955;PMS5003;25631;51.516;-0.470;2023-09-19T01:46:28;60;58;
39955;PMS5003;25631;51.516;-0.470;2023-09-19T01:49:15;64;61;
39955;PMS5003;25631;51.516;-0.470;2023-09-19T01:52:04;64;62;
39955;PMS5003;25631;51.516;-0.470;2023-09-19T01:54:49;52;52;
39955;PMS5003;25631;51.516;-0.470;2023-09-19T01:57:28;58;57;
39955;PMS5003;25631;51.516;-0.470;2023-09-19T02:00:09;62;61;
39955;PMS5003;25631;51.516;-0.470;2023-09-19T02:02:47;61;61;
39955;PMS5003;25631;51.516;-0.470;2023-09-19T02:05:25;69;65;
39955;PMS5003;25631;51.516;-0.470;2023-09-19T02:08:02;57;56;
39955;PMS5003;25631;51.516;-0.470;2023-09-19T02:10:39;53;52;
39955;PMS5003;25631;51.516;-0.470;2023-09-19T02:13:16;58;58;
39955;PMS5003;25631;51.516;-0.470;2023-09-19T02:15:54;50;49;
39955;PMS5003;25631;51.516;-0.470;2023-09-19T02:18:30;50;49;
39955;PMS5003;25631;51.516;-0.470;2023-09-19T02:21:06;58;57;
39955;PMS5003;25631;51.516;-0.470;2023-09-19T02:23:43;57;56;
39955;PMS5003;25631;51.516;-0.470;2023-09-19T02:26:20;55;54;
39955;PMS5003;25631;51.516;-0.470;2023-09-19T02:28:57;55;54;
39955;PMS5003;25631;51.516;-0.470;2023-09-19T02:31:33;58;56;
39955;PMS5003;25631;51.516;-0.470;2023-09-19T02:34:09;57;56;
39955;PMS5003;25631;51.516;-0.470;2023-09-19T02:36:46;55;54;
39955;PMS5003;25631;51.516;-0.470;2023-09-19T02:39:22;56;54;
39955;PMS5003;25631;51.516;-0.470;2023-09-19T02:41:59;51;50;
39955;PMS5003;25631;51.516;-0.470;2023-09-19T02:44:35;51;50;
39955;PMS5003;25631;51.516;-0.470;2023-09-19T02:47:12;51;50;
39955;PMS5003;25631;51.516;-0.470;2023-09-19T02:49:48;51;50;
39955;PMS5003;25631;51.516;-0.470;2023-09-19T02:52:25;54;51;
39955;PMS5003;25631;51.516;-0.470;2023-09-19T02:55:01;51;49;
39955;PMS5003;25631;51.516;-0.470;2023-09-19T02:57:39;50;48;
39955;PMS5003;25631;51.516;-0.470;2023-09-19T03:00:16;48;48;
39955;PMS5003;25631;51.516;-0.470;2023-09-19T03:02:54;51;50;
39955;PMS5003;25631;51.516;-0.470;2023-09-19T03:05:31;59;57;
39955;PMS5003;25631;51.516;-0.470;2023-09-19T03:08:08;56;54;
39955;PMS5003;25631;51.516;-0.470;2023-09-19T03:10:46;56;53;
39955;PMS5003;25631;51.516;-0.470;2023-09-19T03:13:22;57;55;
39955;PMS5003;25631;51.516;-0.470;2023-09-19T03:16:00;63;61;
39955;PMS5003;25631;51.516;-0.470;2023-09-19T03:18:36;67;65;
39955;PMS5003;25631;51.516;-0.470;2023-09-19T03:21:13;59;58;
39955;PMS5003;25631;51.516;-0.470;2023-09-19T03:23:49;60;59;
39955;PMS5003;25631;51.516;-0.470;2023-09-19T03:26:26;62;61;
39955;PMS5003;25631;51.516;-0.470;2023-09-19T03:29:03;72;69;
39955;PMS5003;25631;51.516;-0.470;2023-09-19T03:31:40;73;67;
39955;PMS5003;25631;51.516;-0.470;2023-09-19T03:34:17;67;62;
39955;PMS5003;25631;51.516;-0.470;2023-09-19T03:36:54;57;57;
39955;PMS5003;25631;51.516;-0.470;2023-09-19T03:39:30;60;58;
39955;PMS5003;25631;51.516;-0.470;2023-09-19T03:42:07;62;61;
39955;PMS5003;25631;51.516;-0.470;2023-09-19T03:44:44;62;59;
39955;PMS5003;25631;51.516;-0.470;2023-09-19T03:47:20;63;58;
39955;PMS5003;25631;51.516;-0.470;2023-09-19T03:49:57;66;66;
39955;PMS5003;25631;51.516;-0.470;2023-09-19T03:52:33;68;68;
39955;PMS5003;25631;51.516;-0.470;2023-09-19T03:55:10;58;57;
39955;PMS5003;25631;51.516;-0.470;2023-09-19T03:57:47;62;58;
39955;PMS5003;25631;51.516;-0.470;2023-09-19T04:00:24;63;60;
39955;PMS5003;25631;51.516;-0.470;2023-09-19T04:03:01;76;74;
39955;PMS5003;25631;51.516;-0.470;2023-09-19T04:05:37;69;69;
39955;PMS5003;25631;51.516;-0.470;2023-09-19T04:08:13;73;70;
39955;PMS5003;25631;51.516;-0.470;2023-09-19T04:10:50;69;66;
39955;PMS5003;25631;51.516;-0.470;2023-09-19T04:13:26;66;64;
39955;PMS5003;25631;51.516;-0.470;2023-09-19T04:16:03;67;66;
39955;PMS5003;25631;51.516;-0.470;2023-09-19T04:18:39;67;66;
39955;PMS5003;25631;51.516;-0.470;2023-09-19T04:21:16;67;66;
39955;PMS5003;25631;51.516;-0.470;2023-09-19T04:23:52;77;75;
39955;PMS5003;25631;51.516;-0.470;2023-09-19T04:26:29;78;76;
39955;PMS5003;25631;51.516;-0.470;2023-09-19T04:29:05;78;74;
39955;PMS5003;25631;51.516;-0.470;2023-09-19T04:31:42;74;72;
39955;PMS5003;25631;51.516;-0.470;2023-09-19T04:34:18;72;71;
39955;PMS5003;25631;51.516;-0.470;2023-09-19T04:36:54;72;68;
39955;PMS5003;25631;51.516;-0.470;2023-09-19T04:39:31;69;67;
39955;PMS5003;25631;51.516;-0.470;2023-09-19T04:42:07;70;67;
39955;PMS5003;25631;51.516;-0.470;2023-09-19T04:44:44;69;68;
39955;PMS5003;25631;51.516;-0.470;2023-09-19T04:47:20;66;66;
39955;PMS5003;25631;51.516;-0.470;2023-09-19T04:49:57;78;73;
39955;PMS5003;25631;51.516;-0.470;2023-09-19T04:52:33;77;71;
39955;PMS5003;25631;51.516;-0.470;2023-09-19T04:55:10;73;67;
39955;PMS5003;25631;51.516;-0.470;2023-09-19T04:57:47;76;74;
39955;PMS5003;25631;51.516;-0.470;2023-09-19T05:00:24;78;75;
39955;PMS5003;25631;51.516;-0.470;2023-09-19T05:03:01;74;72;
39955;PMS5003;25631;51.516;-0.470;2023-09-19T05:05:37;72;69;
39955;PMS5003;25631;51.516;-0.470;2023-09-19T05:08:14;77;73;
39955;PMS5003;25631;51.516;-0.470;2023-09-19T05:10:50;71;68;
39955;PMS5003;25631;51.516;-0.470;2023-09-19T05:13:27;70;66;
39955;PMS5003;25631;51.516;-0.470;2023-09-19T05:16:03;69;66;
39955;PMS5003;25631;51.516;-0.470;2023-09-19T05:18:40;77;75;
39955;PMS5003;25631;51.516;-0.470;2023-09-19T05:21:16;74;73;
39955;PMS5003;25631;51.516;-0.470;2023-09-19T05:23:53;82;77;
39955;PMS5003;25631;51.516;-0.470;2023-09-19T05:26:29;75;73;
39955;PMS5003;25631;51.516;-0.470;2023-09-19T05:29:06;70;68;
39955;PMS5003;25631;51.516;-0.470;2023-09-19T05:31:42;83;78;
39955;PMS5003;25631;51.516;-0.470;2023-09-19T05:34:19;83;79;
39955;PMS5003;25631;51.516;-0.470;2023-09-19T05:36:56;78;75;
39955;PMS5003;25631;51.516;-0.470;2023-09-19T05:39:32;78;75;
39955;PMS5003;25631;51.516;-0.470;2023-09-19T05:42:09;78;77;
39955;PMS5003;25631;51.516;-0.470;2023-09-19T05:44:45;84;79;
39955;PMS5003;25631;51.516;-0.470;2023-09-19T05:47:22;87;81;
39955;PMS5003;25631;51.516;-0.470;2023-09-19T05:49:58;83;80;
39955;PMS5003;25631;51.516;-0.470;2023-09-19T05:52:35;71;69;
39955;PMS5003;25631;51.516;-0.470;2023-09-19T05:55:11;79;73;
39955;PMS5003;25631;51.516;-0.470;2023-09-19T05:57:49;78;75;
39955;PMS5003;25631;51.516;-0.470;2023-09-19T06:00:25;76;74;
39955;PMS5003;25631;51.516;-0.470;2023-09-19T06:03:02;73;72;
39955;PMS5003;25631;51.516;-0.470;2023-09-19T06:05:39;79;77;
39955;PMS5003;25631;51.516;-0.470;2023-09-19T06:08:16;74;73;
39955;PMS5003;25631;51.516;-0.470;2023-09-19T06:10:52;73;69;
39955;PMS5003;25631;51.516;-0.470;2023-09-19T06:13:29;69;65;
39955;PMS5003;25631;51.516;-0.470;2023-09-19T06:16:05;66;62;
39955;PMS5003;25631;51.516;-0.470;2023-09-19T06:18:42;71;71;
39955;PMS5003;25631;51.516;-0.470;2023-09-19T06:21:19;72;71;
39955;PMS5003;25631;51.516;-0.470;2023-09-19T06:23:55;82;81;
39955;PMS5003;25631;51.516;-0.470;2023-09-19T06:26:32;69;67;
39955;PMS5003;25631;51.516;-0.470;2023-09-19T06:29:08;67;66;
39955;PMS5003;25631;51.516;-0.470;2023-09-19T06:31:45;70;67;
39955;PMS5003;25631;51.516;-0.470;2023-09-19T06:34:22;69;66;
39955;PMS5003;25631;51.516;-0.470;2023-09-19T06:36:58;69;66;
39955;PMS5003;25631;51.516;-0.470;2023-09-19T06:39:34;69;67;
39955;PMS5003;25631;51.516;-0.470;2023-09-19T06:42:11;74;69;
39955;PMS5003;25631;51.516;-0.470;2023-09-19T06:44:47;63;60;
39955;PMS5003;25631;51.516;-0.470;2023-09-19T06:47:24;64;61;
39955;PMS5003;25631;51.516;-0.470;2023-09-19T06:50:00;63;61;
39955;PMS5003;25631;51.516;-0.470;2023-09-19T06:52:37;66;65;
39955;PMS5003;25631;51.516;-0.470;2023-09-19T06:55:14;64;63;
39955;PMS5003;25631;51.516;-0.470;2023-09-19T06:57:51;63;62;
39955;PMS5003;25631;51.516;-0.470;2023-09-19T07:00:28;78;75;
39955;PMS5003;25631;51.516;-0.470;2023-09-19T07:03:05;76;74;
39955;PMS5003;25631;51.516;-0.470;2023-09-19T07:05:43;75;74;
39955;PMS5003;25631;51.516;-0.470;2023-09-19T07:08:20;75;72;
39955;PMS5003;25631;51.516;-0.470;2023-09-19T07:10:56;73;70;
39955;PMS5003;25631;51.516;-0.470;2023-09-19T07:13:33;72;69;
39955;PMS5003;25631;51.516;-0.470;2023-09-19T07:16:09;79;75;
39955;PMS5003;25631;51.516;-0.470;2023-09-19T07:18:46;75;74;
39955;PMS5003;25631;51.516;-0.470;2023-09-19T07:21:22;72;71;
39955;PMS5003;25631;51.516;-0.470;2023-09-19T07:23:59;70;69;
39955;PMS5003;25631;51.516;-0.470;2023-09-19T07:26:36;72;70;
39955;PMS5003;25631;51.516;-0.470;2023-09-19T07:29:13;77;73;
39955;PMS5003;25631;51.516;-0.470;2023-09-19T07:31:49;77;72;
39955;PMS5003;25631;51.516;-0.470;2023-09-19T07:34:26;77;74;
39955;PMS5003;25631;51.516;-0.470;2023-09-19T07:37:03;81;81;
39955;PMS5003;25631;51.516;-0.470;2023-09-19T07:39:39;77;75;
39955;PMS5003;25631;51.516;-0.470;2023-09-19T07:42:16;76;74;
39955;PMS5003;25631;51.516;-0.470;2023-09-19T07:44:52;74;73;
39955;PMS5003;25631;51.516;-0.470;2023-09-19T07:47:29;85;81;
39955;PMS5003;25631;51.516;-0.470;2023-09-19T07:50:06;84;81;
39955;PMS5003;25631;51.516;-0.470;2023-09-19T07:52:42;85;82;
39955;PMS5003;25631;51.516;-0.470;2023-09-19T07:55:19;84;80;
39955;PMS5003;25631;51.516;-0.470;2023-09-19T07:57:56;84;81;
39955;PMS5003;25631;51.516;-0.470;2023-09-19T08:00:32;82;80;
39955;PMS5003;25631;51.516;-0.470;2023-09-19T08:03:09;87;83;
39955;PMS5003;25631;51.516;-0.470;2023-09-19T08:05:46;86;84;
39955;PMS5003;25631;51.516;-0.470;2023-09-19T08:08:22;86;85;
39955;PMS5003;25631;51.516;-0.470;2023-09-19T08:10:58;85;83;
39955;PMS5003;25631;51.516;-0.470;2023-09-19T08:13:35;73;73;
39955;PMS5003;25631;51.516;-0.470;2023-09-19T08:16:11;80;78;
39955;PMS5003;25631;51.516;-0.470;2023-09-19T08:18:49;82;79;
39955;PMS5003;25631;51.516;-0.470;2023-09-19T08:21:26;77;76;
39955;PMS5003;25631;51.516;-0.470;2023-09-19T08:24:02;79;77;
39955;PMS5003;25631;51.516;-0.470;2023-09-19T08:26:39;91;84;
39955;PMS5003;25631;51.516;-0.470;2023-09-19T08:29:15;95;88;
39955;PMS5003;25631;51.516;-0.470;2023-09-19T08:31:52;91;85;
39955;PMS5003;25631;51.516;-0.470;2023-09-19T08:34:29;81;77;
39955;PMS5003;25631;51.516;-0.470;2023-09-19T08:37:06;77;74;
39955;PMS5003;25631;51.516;-0.470;2023-09-19T08:39:42;65;65;
39955;PMS5003;25631;51.516;-0.470;2023-09-19T08:42:19;68;66;
39955;PMS5003;25631;51.516;-0.470;2023-09-19T08:44:55;74;71;
39955;PMS5003;25631;51.516;-0.470;2023-09-19T08:47:34;83;83;
39955;PMS5003;25631;51.516;-0.470;2023-09-19T08:50:17;81;79;
39955;PMS5003;25631;51.516;-0.470;2023-09-19T08:53:01;74;69;
39955;PMS5003;25631;51.516;-0.470;2023-09-19T08:55:45;61;59;
39955;PMS5003;25631;51.516;-0.470;2023-09-19T08:58:26;58;57;
39955;PMS5003;25631;51.516;-0.470;2023-09-19T09:01:07;72;69;
39955;PMS5003;25631;51.516;-0.470;2023-09-19T09:03:44;65;64;
39955;PMS5003;25631;51.516;-0.470;2023-09-19T09:06:24;69;68;
39955;PMS5003;25631;51.516;-0.470;2023-09-19T09:09:01;57;57;
39955;PMS5003;25631;51.516;-0.470;2023-09-19T09:11:40;55;55;
39955;PMS5003;25631;51.516;-0.470;2023-09-19T09:14:17;65;63;
39955;PMS5003;25631;51.516;-0.470;2023-09-19T09:16:55;59;57;
39955;PMS5003;25631;51.516;-0.470;2023-09-19T09:19:32;58;55;
39955;PMS5003;25631;51.516;-0.470;2023-09-19T09:22:09;45;44;
39955;PMS5003;25631;51.516;-0.470;2023-09-19T09:24:54;56;55;
39955;PMS5003;25631;51.516;-0.470;2023-09-19T09:27:31;57;55;
39955;PMS5003;25631;51.516;-0.470;2023-09-19T09:30:08;52;51;
39955;PMS5003;25631;51.516;-0.470;2023-09-19T09:32:45;57;55;
39955;PMS5003;25631;51.516;-0.470;2023-09-19T09:35:22;59;51;
39955;PMS5003;25631;51.516;-0.470;2023-09-19T09:37:59;52;50;
39955;PMS5003;25631;51.516;-0.470;2023-09-19T09:40:45;50;50;
39955;PMS5003;25631;51.516;-0.470;2023-09-19T09:43:25;57;55;
39955;PMS5003;25631;51.516;-0.470;2023-09-19T09:46:07;59;55;
39955;PMS5003;25631;51.516;-0.470;2023-09-19T09:48:44;52;51;
39955;PMS5003;25631;51.516;-0.470;2023-09-19T09:51:29;56;53;
39955;PMS5003;25631;51.516;-0.470;2023-09-19T09:54:11;55;52;
39955;PMS5003;25631;51.516;-0.470;2023-09-19T09:56:56;49;47;
39955;PMS5003;25631;51.516;-0.470;2023-09-19T09:59:49;48;46;
39955;PMS5003;25631;51.516;-0.470;2023-09-19T10:02:28;46;46;
39955;PMS5003;25631;51.516;-0.470;2023-09-19T10:05:10;44;44;
39955;PMS5003;25631;51.516;-0.470;2023-09-19T10:07:49;44;44;
39955;PMS5003;25631;51.516;-0.470;2023-09-19T10:10:30;43;42;
39955;PMS5003;25631;51.516;-0.470;2023-09-19T10:13:08;45;43;
39955;PMS5003;25631;51.516;-0.470;2023-09-19T10:15:47;44;43;
39955;PMS5003;25631;51.516;-0.470;2023-09-19T10:18:26;43;42;
39955;PMS5003;25631;51.516;-0.470;2023-09-19T10:21:03;44;42;
39955;PMS5003;25631;51.516;-0.470;2023-09-19T10:23:40;33;32;
39955;PMS5003;25631;51.516;-0.470;2023-09-19T10:26:18;31;30;
39955;PMS5003;25631;51.516;-0.470;2023-09-19T10:28:55;41;39;
39955;PMS5003;25631;51.516;-0.470;2023-09-19T10:31:33;38;37;
39955;PMS5003;25631;51.516;-0.470;2023-09-19T10:34:11;36;34;
39955;PMS5003;25631;51.516;-0.470;2023-09-19T10:36:49;35;34;
39955;PMS5003;25631;51.516;-0.470;2023-09-19T10:39:28;36;35;
39955;PMS5003;25631;51.516;-0.470;2023-09-19T10:42:07;37;37;
39955;PMS5003;25631;51.516;-0.470;2023-09-19T10:44:51;38;38;
39955;PMS5003;25631;51.516;-0.470;2023-09-19T10:47:28;39;39;
39955;PMS5003;25631;51.516;-0.470;2023-09-19T10:50:05;28;27;
39955;PMS5003;25631;51.516;-0.470;2023-09-19T10:52:42;28;27;
39955;PMS5003;25631;51.516;-0.470;2023-09-19T10:55:19;28;27;
39955;PMS5003;25631;51.516;-0.470;2023-09-19T10:57:56;34;32;
39955;PMS5003;25631;51.516;-0.470;2023-09-19T11:00:46;35;32;
39955;PMS5003;25631;51.516;-0.470;2023-09-19T11:03:27;36;35;
39955;PMS5003;25631;51.516;-0.470;2023-09-19T11:06:06;35;34;
39955;PMS5003;25631;51.516;-0.470;2023-09-19T11:08:52;32;31;
39955;PMS5003;25631;51.516;-0.470;2023-09-19T11:11:46;28;28;
39955;PMS5003;25631;51.516;-0.470;2023-09-19T11:14:32;28;28;
39955;PMS5003;25631;51.516;-0.470;2023-09-19T11:17:47;27;25;
39955;PMS5003;25631;51.516;-0.470;2023-09-19T11:20:24;27;26;
39955;PMS5003;25631;51.516;-0.470;2023-09-19T11:23:32;32;31;
39955;PMS5003;25631;51.516;-0.470;2023-09-19T11:26:10;28;28;
39955;PMS5003;25631;51.516;-0.470;2023-09-19T11:29:31;27;27;
39955;PMS5003;25631;51.516;-0.470;2023-09-19T11:32:08;27;26;
39955;PMS5003;25631;51.516;-0.470;2023-09-19T11:34:45;27;27;
39955;PMS5003;25631;51.516;-0.470;2023-09-19T11:37:59;32;30;
39955;PMS5003;25631;51.516;-0.470;2023-09-19T11:40:36;33;30;
39955;PMS5003;25631;51.516;-0.470;2023-09-19T11:43:31;32;29;
39955;PMS5003;25631;51.516;-0.470;2023-09-19T11:46:08;24;24;
39955;PMS5003;25631;51.516;-0.470;2023-09-19T11:48:45;25;24;
39955;PMS5003;25631;51.516;-0.470;2023-09-19T11:51:24;25;23;
39955;PMS5003;25631;51.516;-0.470;2023-09-19T11:54:00;25;22;
39955;PMS5003;25631;51.516;-0.470;2023-09-19T11:56:39;26;23;
39955;PMS5003;25631;51.516;-0.470;2023-09-19T11:59:19;23;21;
39955;PMS5003;25631;51.516;-0.470;2023-09-19T12:01:56;24;22;
39955;PMS5003;25631;51.516;-0.470;2023-09-19T12:04:34;26;25;
39955;PMS5003;25631;51.516;-0.470;2023-09-19T12:07:12;26;25;
39955;PMS5003;25631;51.516;-0.470;2023-09-19T12:09:50;26;26;
39955;PMS5003;25631;51.516;-0.470;2023-09-19T12:12:38;22;22;
39955;PMS5003;25631;51.516;-0.470;2023-09-19T12:15:15;25;25;
39955;PMS5003;25631;51.516;-0.470;2023-09-19T12:17:58;25;24;
39955;PMS5003;25631;51.516;-0.470;2023-09-19T12:20:42;24;24;
39955;PMS5003;25631;51.516;-0.470;2023-09-19T12:23:19;25;24;
39955;PMS5003;25631;51.516;-0.470;2023-09-19T12:25:56;27;25;
39955;PMS5003;25631;51.516;-0.470;2023-09-19T12:28:37;27;25;
39955;PMS5003;25631;51.516;-0.470;2023-09-19T12:31:18;26;25;
39955;PMS5003;25631;51.516;-0.470;2023-09-19T12:33:54;25;24;
39955;PMS5003;25631;51.516;-0.470;2023-09-19T12:36:31;25;25;
39955;PMS5003;25631;51.516;-0.470;2023-09-19T12:39:07;20;19;
39955;PMS5003;25631;51.516;-0.470;2023-09-19T12:41:44;20;19;
39955;PMS5003;25631;51.516;-0.470;2023-09-19T12:44:20;19;18;
39955;PMS5003;25631;51.516;-0.470;2023-09-19T12:46:57;20;20;
39955;PMS5003;25631;51.516;-0.470;2023-09-19T12:49:33;20;20;
39955;PMS5003;25631;51.516;-0.470;2023-09-19T12:52:10;17;16;
39955;PMS5003;25631;51.516;-0.470;2023-09-19T12:54:46;18;16;
39955;PMS5003;25631;51.516;-0.470;2023-09-19T12:57:23;17;16;
39955;PMS5003;25631;51.516;-0.470;2023-09-19T13:00:00;17;17;
39955;PMS5003;25631;51.516;-0.470;2023-09-19T13:02:37;17;16;
39955;PMS5003;25631;51.516;-0.470;2023-09-19T13:05:48;17;17;
39955;PMS5003;25631;51.516;-0.470;2023-09-19T13:08:27;16;16;
39955;PMS5003;25631;51.516;-0.470;2023-09-19T13:11:05;15;15;
39955;PMS5003;25631;51.516;-0.470;2023-09-19T13:13:45;20;17;
39955;PMS5003;25631;51.516;-0.470;2023-09-19T13:16:22;21;19;
39955;PMS5003;25631;51.516;-0.470;2023-09-19T13:18:59;20;19;
39955;PMS5003;25631;51.516;-0.470;2023-09-19T13:21:35;19;17;
39955;PMS5003;25631;51.516;-0.470;2023-09-19T13:24:20;19;18;
39955;PMS5003;25631;51.516;-0.470;2023-09-19T13:26:58;21;20;
39955;PMS5003;25631;51.516;-0.470;2023-09-19T13:29:34;20;19;
39955;PMS5003;25631;51.516;-0.470;2023-09-19T13:32:11;17;17;
39955;PMS5003;25631;51.516;-0.470;2023-09-19T13:34:47;15;15;
39955;PMS5003;25631;51.516;-0.470;2023-09-19T13:37:24;15;14;
39955;PMS5003;25631;51.516;-0.470;2023-09-19T13:40:00;18;18;
39955;PMS5003;25631;51.516;-0.470;2023-09-19T13:42:37;18;18;
39955;PMS5003;25631;51.516;-0.470;2023-09-19T13:45:14;19;19;
39955;PMS5003;25631;51.516;-0.470;2023-09-19T13:47:50;21;21;
39955;PMS5003;25631;51.516;-0.470;2023-09-19T13:50:27;22;22;
39955;PMS5003;25631;51.516;-0.470;2023-09-19T13:53:04;20;20;
39955;PMS5003;25631;51.516;-0.470;2023-09-19T13:55:41;21;21;
39955;PMS5003;25631;51.516;-0.470;2023-09-19T13:58:17;20;20;
39955;PMS5003;25631;51.516;-0.470;2023-09-19T14:00:56;25;25;
39955;PMS5003;25631;51.516;-0.470;2023-09-19T14:03:32;26;26;
39955;PMS5003;25631;51.516;-0.470;2023-09-19T14:06:09;19;18;
39955;PMS5003;25631;51.516;-0.470;2023-09-19T14:08:45;21;19;
39955;PMS5003;25631;51.516;-0.470;2023-09-19T14:11:22;22;19;
39955;PMS5003;25631;51.516;-0.470;2023-09-19T14:13:58;23;21;
39955;PMS5003;25631;51.516;-0.470;2023-09-19T14:16:35;22;21;
39955;PMS5003;25631;51.516;-0.470;2023-09-19T14:19:16;16;16;
39955;PMS5003;25631;51.516;-0.470;2023-09-19T14:21:52;16;16;
39955;PMS5003;25631;51.516;-0.470;2023-09-19T14:24:29;16;16;
39955;PMS5003;25631;51.516;-0.470;2023-09-19T14:27:05;20;19;
39955;PMS5003;25631;51.516;-0.470;2023-09-19T14:29:42;21;20;
39955;PMS5003;25631;51.516;-0.470;2023-09-19T14:32:18;21;21;
39955;PMS5003;25631;51.516;-0.470;2023-09-19T14:34:55;18;17;
39955;PMS5003;25631;51.516;-0.470;2023-09-19T14:37:32;17;16;
39955;PMS5003;25631;51.516;-0.470;2023-09-19T14:40:09;20;20;
39955;PMS5003;25631;51.516;-0.470;2023-09-19T14:42:45;19;19;
39955;PMS5003;25631;51.516;-0.470;2023-09-19T14:45:22;19;18;
39955;PMS5003;25631;51.516;-0.470;2023-09-19T14:47:59;19;18;
39955;PMS5003;25631;51.516;-0.470;2023-09-19T14:50:35;21;21;
39955;PMS5003;25631;51.516;-0.470;2023-09-19T14:53:12;22;21;
39955;PMS5003;25631;51.516;-0.470;2023-09-19T14:55:48;20;20;
39955;PMS5003;25631;51.516;-0.470;2023-09-19T14:58:25;19;19;
39955;PMS5003;25631;51.516;-0.470;2023-09-19T15:01:03;18;18;
39955;PMS5003;25631;51.516;-0.470;2023-09-19T15:03:41;18;18;
39955;PMS5003;25631;51.516;-0.470;2023-09-19T15:06:18;26;25;
39955;PMS5003;25631;51.516;-0.470;2023-09-19T15:08:55;26;25;
39955;PMS5003;25631;51.516;-0.470;2023-09-19T15:11:32;24;23;
39955;PMS5003;25631;51.516;-0.470;2023-09-19T15:14:08;25;23;
39955;PMS5003;25631;51.516;-0.470;2023-09-19T15:16:45;25;24;
39955;PMS5003;25631;51.516;-0.470;2023-09-19T15:19:22;23;22;
39955;PMS5003;25631;51.516;-0.470;2023-09-19T15:21:58;22;22;
39955;PMS5003;25631;51.516;-0.470;2023-09-19T15:24:35;21;21;
39955;PMS5003;25631;51.516;-0.470;2023-09-19T15:27:11;18;18;
39955;PMS5003;25631;51.516;-0.470;2023-09-19T15:29:48;16;16;
39955;PMS5003;25631;51.516;-0.470;2023-09-19T15:32:24;17;17;
39955;PMS5003;25631;51.516;-0.470;2023-09-19T15:35:01;20;20;
39955;PMS5003;25631;51.516;-0.470;2023-09-19T15:37:37;18;18;
39955;PMS5003;25631;51.516;-0.470;2023-09-19T15:40:14;21;21;
39955;PMS5003;25631;51.516;-0.470;2023-09-19T15:42:50;22;22;
39955;PMS5003;25631;51.516;-0.470;2023-09-19T15:45:27;23;22;
39955;PMS5003;25631;51.516;-0.470;2023-09-19T15:48:04;20;20;
39955;PMS5003;25631;51.516;-0.470;2023-09-19T15:50:41;20;20;
39955;PMS5003;25631;51.516;-0.470;2023-09-19T15:53:17;21;21;
39955;PMS5003;25631;51.516;-0.470;2023-09-19T15:55:54;21;20;
39955;PMS5003;25631;51.516;-0.470;2023-09-19T15:58:30;20;20;
39955;PMS5003;25631;51.516;-0.470;2023-09-19T16:01:07;18;18;
39955;PMS5003;25631;51.516;-0.470;2023-09-19T16:03:45;18;18;
39955;PMS5003;25631;51.516;-0.470;2023-09-19T16:06:23;18;18;
39955;PMS5003;25631;51.516;-0.470;2023-09-19T16:09:01;17;17;
39955;PMS5003;25631;51.516;-0.470;2023-09-19T16:11:37;16;16;
39955;PMS5003;25631;51.516;-0.470;2023-09-19T16:14:14;17;17;
39955;PMS5003;25631;51.516;-0.470;2023-09-19T16:16:51;18;18;
39955;PMS5003;25631;51.516;-0.470;2023-09-19T16:19:27;18;18;
39955;PMS5003;25631;51.516;-0.470;2023-09-19T16:22:04;18;18;
39955;PMS5003;25631;51.516;-0.470;2023-09-19T16:24:41;18;18;
39955;PMS5003;25631;51.516;-0.470;2023-09-19T16:27:18;20;19;
39955;PMS5003;25631;51.516;-0.470;2023-09-19T16:29:54;17;17;
39955;PMS5003;25631;51.516;-0.470;2023-09-19T16:32:31;18;18;
39955;PMS5003;25631;51.516;-0.470;2023-09-19T16:35:07;21;21;
39955;PMS5003;25631;51.516;-0.470;2023-09-19T16:37:43;19;19;
39955;PMS5003;25631;51.516;-0.470;2023-09-19T16:40:20;18;17;
39955;PMS5003;25631;51.516;-0.470;2023-09-19T16:42:56;21;19;
39955;PMS5003;25631;51.516;-0.470;2023-09-19T16:45:33;20;17;
39955;PMS5003;25631;51.516;-0.470;2023-09-19T16:48:09;17;17;
39955;PMS5003;25631;51.516;-0.470;2023-09-19T16:50:46;16;16;
39955;PMS5003;25631;51.516;-0.470;2023-09-19T16:53:22;16;16;
39955;PMS5003;25631;51.516;-0.470;2023-09-19T16:56:00;20;20;
39955;PMS5003;25631;51.516;-0.470;2023-09-19T16:58:38;18;18;
39955;PMS5003;25631;51.516;-0.470;2023-09-19T17:01:16;18;18;
39955;PMS5003;25631;51.516;-0.470;2023-09-19T17:03:53;16;16;
39955;PMS5003;25631;51.516;-0.470;2023-09-19T17:06:29;17;17;
39955;PMS5003;25631;51.516;-0.470;2023-09-19T17:09:06;20;20;
39955;PMS5003;25631;51.516;-0.470;2023-09-19T17:11:42;20;20;